Terminal Aerodrome Forecast
Issued by NWS

Home | Current Version | Previous Version | Text Only | Print | Product List | Glossary On
Versions: 1 2 3 4 5 6 7 8 9 10 11 12 13 14 15 16 17 18 19 20 21 22 23
209
FTUS45 KABQ 250537
TAFSAF
TAF
KSAF 250537Z 2506/2606 01010KT P6SM SKC
     FM251100 03018G28KT P6SM FEW050
     FM251800 10016G26KT P6SM SCT050
     FM252100 12018G28KT P6SM SCT050
     FM260200 12010KT P6SM SKC=

USA.gov is the U.S. government's official web portal to all federal, state and local government web resources and services.